createdAt,value
2023-02-28T00:00:08.646Z,88.98
2023-02-28T00:01:08.202Z,89.09
2023-02-28T00:02:07.766Z,89.29
2023-02-28T00:03:07.570Z,89.50
2023-02-28T00:04:08.691Z,89.44
2023-02-28T00:05:07.980Z,89.44
2023-02-28T00:06:08.157Z,89.12
2023-02-28T00:07:08.351Z,89.97
2023-02-28T00:08:09.187Z,89.86
2023-02-28T00:09:08.701Z,90.17
2023-02-28T00:10:09.660Z,90.07
2023-02-28T00:11:09.653Z,90.07
2023-02-28T00:12:09.701Z,90.38
2023-02-28T00:13:10.165Z,90.28
2023-02-28T00:14:11.159Z,89.86
2023-02-28T00:15:32.588Z,89.92
2023-02-28T00:16:11.598Z,90.17
2023-02-28T00:17:10.707Z,89.97
2023-02-28T00:18:10.358Z,89.86
2023-02-28T00:19:12.152Z,89.86
2023-02-28T00:20:12.151Z,90.17
2023-02-28T00:21:10.946Z,90.49
2023-02-28T00:22:12.152Z,90.38
2023-02-28T00:23:13.658Z,90.17
2023-02-28T00:24:11.402Z,91.12
2023-02-28T00:25:13.025Z,90.59
2023-02-28T00:26:12.328Z,90.70
2023-02-28T00:27:13.721Z,91.16
2023-02-28T00:28:12.724Z,90.74
2023-02-28T00:29:12.358Z,90.95
2023-02-28T00:30:13.155Z,90.95
2023-02-28T00:31:13.619Z,91.05
2023-02-28T00:32:14.199Z,90.74
2023-02-28T00:33:12.971Z,91.30
2023-02-28T00:34:13.136Z,91.94
2023-02-28T00:35:13.290Z,91.30
2023-02-28T00:36:13.469Z,91.83
2023-02-28T00:37:14.164Z,91.62
2023-02-28T00:38:13.791Z,90.89
2023-02-28T00:39:13.956Z,91.47
2023-02-28T00:40:14.124Z,91.79
2023-02-28T00:41:14.346Z,91.83
2023-02-28T00:42:14.537Z,92.10
2023-02-28T00:43:14.720Z,91.09
2023-02-28T00:44:15.699Z,91.41
2023-02-28T00:45:15.094Z,91.94
2023-02-28T00:46:15.320Z,91.52
2023-02-28T00:47:15.446Z,91.27
2023-02-28T00:48:16.658Z,91.52
2023-02-28T00:49:15.806Z,91.72
2023-02-28T00:50:16.660Z,91.83
2023-02-28T00:51:16.711Z,92.04
2023-02-28T00:52:16.420Z,91.41
2023-02-28T00:53:17.196Z,90.99
2023-02-28T00:54:17.662Z,91.03
2023-02-28T00:55:17.055Z,92.29
2023-02-28T00:56:17.247Z,91.91
2023-02-28T00:57:17.463Z,91.77
2023-02-28T00:58:18.520Z,91.91
2023-02-28T00:59:18.702Z,92.23
2023-02-28T01:00:18.221Z,91.28
2023-02-28T01:01:18.738Z,92.12
2023-02-28T01:02:18.293Z,92.33
2023-02-28T01:03:18.460Z,92.33
2023-02-28T01:04:18.671Z,92.65
2023-02-28T01:05:18.848Z,92.65
2023-02-28T01:06:19.013Z,92.27
2023-02-28T01:07:19.217Z,92.80
2023-02-28T01:08:20.671Z,92.27
2023-02-28T01:09:20.201Z,92.27
2023-02-28T01:10:19.745Z,92.48
2023-02-28T01:11:19.929Z,92.69
2023-02-28T01:12:20.070Z,93.22
2023-02-28T01:13:20.217Z,92.48
2023-02-28T01:14:20.370Z,93.22
2023-02-28T01:15:20.565Z,92.90
2023-02-28T01:16:20.736Z,92.38
2023-02-28T01:17:20.906Z,93.32
2023-02-28T01:18:21.097Z,93.32
2023-02-28T01:19:23.172Z,93.05
2023-02-28T01:20:23.167Z,93.63
2023-02-28T01:21:21.543Z,93.47
2023-02-28T01:22:22.664Z,93.37
2023-02-28T01:23:22.217Z,93.47
2023-02-28T01:24:22.006Z,93.05
2023-02-28T01:25:22.763Z,93.83
2023-02-28T01:26:22.330Z,93.05
2023-02-28T01:27:23.027Z,93.19
2023-02-28T01:28:22.699Z,93.37
2023-02-28T01:29:22.917Z,93.68
2023-02-28T01:30:24.668Z,93.09
2023-02-28T01:31:24.237Z,93.83
2023-02-28T01:32:23.525Z,94.04
2023-02-28T01:33:23.702Z,93.72
2023-02-28T01:34:23.883Z,93.51
2023-02-28T01:35:24.032Z,93.51
2023-02-28T01:36:25.167Z,93.47
2023-02-28T01:37:25.205Z,93.72
2023-02-28T01:38:24.567Z,94.14
2023-02-28T01:39:24.831Z,94.10
2023-02-28T01:40:24.992Z,94.14
2023-02-28T01:41:25.135Z,93.89
2023-02-28T01:42:26.174Z,94.14
2023-02-28T01:43:25.419Z,93.83
2023-02-28T01:44:25.558Z,94.35
2023-02-28T01:45:26.666Z,94.25
2023-02-28T01:46:26.798Z,94.67
2023-02-28T01:47:26.057Z,94.35
2023-02-28T01:48:27.219Z,94.31
2023-02-28T01:49:26.356Z,93.99
2023-02-28T01:50:27.203Z,93.83
2023-02-28T01:51:28.911Z,94.25
2023-02-28T01:52:26.917Z,94.14
2023-02-28T01:53:27.666Z,94.14
2023-02-28T01:54:27.337Z,93.93
2023-02-28T01:55:28.662Z,93.51
2023-02-28T01:56:27.657Z,93.41
2023-02-28T01:57:28.212Z,93.83
2023-02-28T01:58:27.976Z,93.09
2023-02-28T01:59:28.114Z,93.55
2023-02-28T02:00:29.164Z,93.72
2023-02-28T02:01:28.903Z,93.66
2023-02-28T02:02:28.689Z,93.55
2023-02-28T02:03:28.727Z,94.23
2023-02-28T02:04:28.874Z,94.18
2023-02-28T02:05:29.699Z,94.18
2023-02-28T02:06:29.198Z,94.29
2023-02-28T02:07:29.370Z,94.92
2023-02-28T02:08:30.032Z,93.98
2023-02-28T02:09:31.530Z,93.87
2023-02-28T02:10:29.863Z,93.41
2023-02-28T02:11:30.363Z,93.09
2023-02-28T02:12:31.167Z,93.30
2023-02-28T02:13:31.168Z,92.35
2023-02-28T02:14:30.428Z,92.46
2023-02-28T02:15:30.598Z,91.93
2023-02-28T02:16:30.778Z,92.00
2023-02-28T02:17:31.708Z,91.89
2023-02-28T02:18:31.129Z,91.62
2023-02-28T02:19:31.304Z,91.09
2023-02-28T02:20:31.485Z,91.20
2023-02-28T02:21:31.901Z,91.77
2023-02-28T02:22:31.824Z,91.97
2023-02-28T02:23:32.017Z,92.40
2023-02-28T02:24:32.202Z,92.54
2023-02-28T02:25:32.385Z,92.71
2023-02-28T02:26:32.573Z,92.61
2023-02-28T02:27:32.777Z,92.71
2023-02-28T02:28:33.677Z,92.61
2023-02-28T02:29:33.671Z,92.82
2023-02-28T02:30:34.167Z,93.07
2023-02-28T02:31:33.637Z,92.86
2023-02-28T02:32:33.711Z,92.23
2023-02-28T02:33:33.899Z,93.18
2023-02-28T02:34:34.681Z,93.60
2023-02-28T02:35:34.265Z,93.49
2023-02-28T02:36:34.338Z,93.60
2023-02-28T02:37:34.503Z,93.91
2023-02-28T02:38:34.678Z,93.49
2023-02-28T02:39:36.172Z,93.70
2023-02-28T02:40:36.032Z,94.02
2023-02-28T02:41:35.203Z,93.49
2023-02-28T02:42:35.396Z,93.49
2023-02-28T02:43:35.565Z,93.38
2023-02-28T02:44:35.759Z,94.12
2023-02-28T02:45:35.927Z,94.02
2023-02-28T02:46:37.576Z,94.54
2023-02-28T02:47:36.365Z,94.34
2023-02-28T02:48:36.531Z,94.23
2023-02-28T02:49:36.731Z,93.49
2023-02-28T02:50:37.677Z,93.60
2023-02-28T02:51:37.711Z,93.18
2023-02-28T02:52:38.164Z,93.38
2023-02-28T02:53:38.669Z,92.86
2023-02-28T02:54:37.574Z,92.54
2023-02-28T02:55:39.531Z,92.23
2023-02-28T02:56:39.668Z,92.86
2023-02-28T02:57:38.173Z,92.33
2023-02-28T02:58:38.397Z,92.86
2023-02-28T02:59:39.178Z,92.44
2023-02-28T03:00:38.785Z,92.48
2023-02-28T03:01:38.887Z,92.65
2023-02-28T03:02:39.669Z,92.65
2023-02-28T03:03:39.282Z,92.48
2023-02-28T03:04:39.343Z,92.54
2023-02-28T03:05:39.564Z,92.48
2023-02-28T03:06:39.778Z,92.54
2023-02-28T03:07:39.979Z,92.33
2023-02-28T03:08:40.196Z,92.96
2023-02-28T03:09:41.671Z,93.01
2023-02-28T03:10:41.169Z,92.76
2023-02-28T03:11:40.703Z,92.76
2023-02-28T03:12:40.884Z,92.76
2023-02-28T03:13:42.043Z,92.96
2023-02-28T03:14:41.192Z,92.69
2023-02-28T03:15:41.396Z,92.12
2023-02-28T03:16:41.594Z,92.16
2023-02-28T03:17:42.669Z,91.85
2023-02-28T03:18:41.952Z,91.96
2023-02-28T03:19:42.132Z,92.38
2023-02-28T03:20:42.332Z,92.58
2023-02-28T03:21:42.500Z,92.65
2023-02-28T03:22:42.662Z,91.74
2023-02-28T03:23:44.537Z,92.44
2023-02-28T03:24:43.035Z,92.02
2023-02-28T03:25:43.193Z,91.91
2023-02-28T03:26:44.676Z,92.12
2023-02-28T03:27:43.600Z,91.70
2023-02-28T03:28:43.771Z,91.66
2023-02-28T03:29:43.939Z,91.49
2023-02-28T03:30:44.101Z,91.17
2023-02-28T03:31:44.791Z,91.28
2023-02-28T03:32:44.733Z,91.28
2023-02-28T03:33:44.651Z,90.86
2023-02-28T03:34:44.810Z,90.86
2023-02-28T03:35:44.984Z,90.86
2023-02-28T03:36:46.286Z,90.80
2023-02-28T03:37:46.042Z,90.58
2023-02-28T03:38:45.743Z,90.90
2023-02-28T03:39:47.177Z,91.22
2023-02-28T03:40:45.922Z,91.32
2023-02-28T03:41:46.082Z,91.00
2023-02-28T03:42:46.248Z,91.36
2023-02-28T03:43:46.437Z,91.53
2023-02-28T03:44:48.044Z,91.32
2023-02-28T03:45:46.799Z,91.64
2023-02-28T03:46:46.981Z,91.42
2023-02-28T03:47:47.702Z,91.32
2023-02-28T03:48:47.376Z,91.11
2023-02-28T03:49:48.222Z,91.05
2023-02-28T03:50:47.754Z,91.64
2023-02-28T03:51:47.913Z,91.32
2023-02-28T03:52:48.062Z,91.32
2023-02-28T03:53:48.278Z,91.36
2023-02-28T03:54:49.190Z,91.47
2023-02-28T03:55:48.573Z,91.00
2023-02-28T03:56:49.682Z,91.26
2023-02-28T03:57:48.948Z,91.05
2023-02-28T03:58:50.680Z,90.90
2023-02-28T03:59:49.307Z,90.62
2023-02-28T04:00:49.478Z,90.48
2023-02-28T04:01:51.718Z,90.94
2023-02-28T04:02:50.727Z,91.00
2023-02-28T04:03:50.000Z,90.90
2023-02-28T04:04:51.723Z,91.32
2023-02-28T04:05:50.401Z,91.15
2023-02-28T04:06:51.597Z,90.80
2023-02-28T04:07:53.684Z,90.69
2023-02-28T04:08:51.028Z,89.95
2023-02-28T04:09:52.683Z,89.53
2023-02-28T04:10:52.682Z,89.11
2023-02-28T04:11:52.190Z,89.32
2023-02-28T04:12:51.614Z,89.32
2023-02-28T04:13:51.801Z,89.22
2023-02-28T04:14:52.680Z,89.22
2023-02-28T04:15:52.738Z,88.69
2023-02-28T04:16:52.405Z,88.73
2023-02-28T04:17:52.549Z,88.79
2023-02-28T04:18:53.702Z,89.00
2023-02-28T04:19:52.846Z,88.48
2023-02-28T04:20:53.733Z,88.37
2023-02-28T04:21:53.125Z,87.95
2023-02-28T04:22:54.189Z,88.16
2023-02-28T04:23:54.249Z,87.95
2023-02-28T04:24:53.742Z,88.06
2023-02-28T04:25:53.766Z,87.85
2023-02-28T04:26:53.926Z,88.27
2023-02-28T04:27:54.071Z,88.20
2023-02-28T04:28:54.238Z,87.95
2023-02-28T04:29:54.422Z,88.31
2023-02-28T04:30:56.184Z,88.79
2023-02-28T04:31:54.915Z,89.11
2023-02-28T04:32:54.910Z,88.20
2023-02-28T04:33:55.066Z,88.20
2023-02-28T04:34:55.227Z,89.04
2023-02-28T04:35:55.386Z,89.15
2023-02-28T04:37:11.813Z,89.15
2023-02-28T04:37:57.774Z,89.09
2023-02-28T04:38:55.917Z,88.73
2023-02-28T04:39:56.116Z,88.73
2023-02-28T04:40:56.282Z,88.94
2023-02-28T04:41:57.198Z,89.04
2023-02-28T04:42:57.692Z,89.15
2023-02-28T04:43:56.816Z,88.83
2023-02-28T04:44:57.027Z,89.47
2023-02-28T04:45:57.246Z,89.68
2023-02-28T04:46:57.372Z,89.36
2023-02-28T04:47:58.537Z,89.15
2023-02-28T04:48:58.193Z,89.47
2023-02-28T04:49:57.862Z,89.47
2023-02-28T04:50:58.691Z,89.64
2023-02-28T04:51:58.206Z,89.22
2023-02-28T04:52:59.061Z,88.62
2023-02-28T04:53:58.466Z,89.00
2023-02-28T04:54:59.182Z,89.00
2023-02-28T04:55:58.832Z,88.58
2023-02-28T04:56:59.020Z,88.31
2023-02-28T04:58:00.229Z,87.99
2023-02-28T04:59:00.182Z,88.31
2023-02-28T04:59:59.566Z,88.20
2023-02-28T05:00:59.733Z,88.94
2023-02-28T05:02:00.781Z,89.09
2023-02-28T05:03:00.769Z,89.12
2023-02-28T05:04:01.049Z,89.61
2023-02-28T05:05:00.512Z,89.51
2023-02-28T05:06:00.615Z,89.82
2023-02-28T05:07:00.801Z,89.34
2023-02-28T05:08:01.112Z,89.65
2023-02-28T05:09:01.151Z,89.40
2023-02-28T05:10:05.466Z,89.72
2023-02-28T05:11:02.187Z,89.72
2023-02-28T05:12:01.680Z,89.61
2023-02-28T05:13:02.686Z,88.87
2023-02-28T05:14:04.211Z,88.87
2023-02-28T05:15:02.220Z,88.98
2023-02-28T05:16:04.212Z,88.87
2023-02-28T05:17:03.190Z,88.81
2023-02-28T05:18:02.724Z,88.66
2023-02-28T05:19:02.965Z,88.87
2023-02-28T05:20:14.601Z,89.29
2023-02-28T05:21:05.233Z,88.24
2023-02-28T05:22:05.190Z,88.35
2023-02-28T05:23:05.195Z,88.56
2023-02-28T05:24:05.196Z,88.81
2023-02-28T05:25:04.709Z,89.09
2023-02-28T05:26:03.996Z,89.29
2023-02-28T05:27:04.181Z,88.98
2023-02-28T05:28:04.329Z,88.24
2023-02-28T05:29:04.475Z,88.35
2023-02-28T05:30:05.185Z,88.10
2023-02-28T05:31:04.845Z,88.35
2023-02-28T05:32:05.128Z,88.41
2023-02-28T05:33:05.241Z,87.93
2023-02-28T05:34:06.246Z,88.24
2023-02-28T05:35:05.645Z,88.98
2023-02-28T05:36:05.834Z,89.09
2023-02-28T05:37:06.013Z,88.98
2023-02-28T05:38:06.187Z,88.98
2023-02-28T05:39:07.187Z,88.77
2023-02-28T05:40:06.580Z,89.29
2023-02-28T05:41:06.783Z,88.94
2023-02-28T05:42:07.251Z,88.20
2023-02-28T05:43:07.176Z,88.03
2023-02-28T05:44:07.352Z,88.03
2023-02-28T05:45:07.526Z,88.24
2023-02-28T05:46:07.791Z,87.50
2023-02-28T05:47:08.881Z,87.50
2023-02-28T05:48:08.729Z,87.08
2023-02-28T05:49:08.788Z,87.36
2023-02-28T05:50:09.461Z,87.40
2023-02-28T05:51:08.632Z,87.25
2023-02-28T05:52:08.834Z,87.57
2023-02-28T05:53:09.022Z,87.57
2023-02-28T05:54:09.210Z,87.68
2023-02-28T05:55:09.399Z,87.93
2023-02-28T05:56:10.203Z,88.20
2023-02-28T05:57:15.674Z,87.93
2023-02-28T05:58:11.866Z,88.10
2023-02-28T05:59:10.275Z,88.10
2023-02-28T06:00:10.740Z,87.61
2023-02-28T06:01:11.239Z,87.93
2023-02-28T06:02:11.207Z,88.31
2023-02-28T06:03:10.780Z,87.25
2023-02-28T06:04:19.381Z,87.36
2023-02-28T06:05:13.090Z,87.88
2023-02-28T06:06:12.337Z,88.10
2023-02-28T06:07:11.542Z,88.41
2023-02-28T06:08:12.689Z,88.20
2023-02-28T06:09:11.962Z,87.68
2023-02-28T06:10:12.185Z,86.90
2023-02-28T06:11:12.365Z,87.68
2023-02-28T06:12:13.701Z,86.94
2023-02-28T06:13:12.751Z,86.94
2023-02-28T06:14:13.746Z,86.83
2023-02-28T06:15:13.696Z,86.72
2023-02-28T06:16:15.143Z,86.41
2023-02-28T06:17:13.566Z,85.88
2023-02-28T06:18:13.775Z,86.30
2023-02-28T06:19:13.965Z,86.10
2023-02-28T06:20:14.712Z,85.88
2023-02-28T06:21:14.383Z,86.30
2023-02-28T06:22:15.251Z,86.16
2023-02-28T06:23:15.698Z,85.85
2023-02-28T06:24:16.207Z,86.27
2023-02-28T06:25:15.083Z,85.31
2023-02-28T06:26:16.240Z,86.16
2023-02-28T06:27:15.392Z,85.85
2023-02-28T06:28:16.205Z,86.27
2023-02-28T06:29:16.646Z,86.05
2023-02-28T06:30:15.891Z,85.95
2023-02-28T06:31:16.090Z,85.95
2023-02-28T06:32:17.388Z,85.74
2023-02-28T06:33:16.434Z,86.05
2023-02-28T06:34:16.756Z,85.95
2023-02-28T06:35:16.907Z,85.53
2023-02-28T06:36:17.751Z,85.63
2023-02-28T06:37:17.149Z,85.85
2023-02-28T06:38:18.202Z,86.27
2023-02-28T06:39:17.483Z,86.16
2023-02-28T06:40:17.753Z,85.85
2023-02-28T06:41:18.702Z,85.80
2023-02-28T06:42:17.972Z,86.16
2023-02-28T06:43:18.159Z,85.63
2023-02-28T06:44:18.761Z,85.74
2023-02-28T06:45:18.554Z,85.70
2023-02-28T06:46:18.771Z,85.70
2023-02-28T06:47:18.839Z,85.91
2023-02-28T06:48:19.022Z,85.80
2023-02-28T06:49:19.219Z,85.91
2023-02-28T06:50:19.400Z,85.49
2023-02-28T06:51:19.607Z,84.96
2023-02-28T06:52:20.746Z,85.07
2023-02-28T06:53:20.746Z,84.33
2023-02-28T06:54:20.164Z,84.40
2023-02-28T06:55:20.788Z,83.56
2023-02-28T06:56:20.498Z,83.34
2023-02-28T06:57:20.692Z,83.03
2023-02-28T06:58:20.975Z,83.24
2023-02-28T06:59:22.780Z,83.10
2023-02-28T07:00:21.187Z,83.62
2023-02-28T07:01:21.408Z,83.41
2023-02-28T07:02:22.259Z,84.57
2023-02-28T07:03:23.155Z,83.83
2023-02-28T07:04:22.738Z,84.36
2023-02-28T07:05:22.193Z,83.80
2023-02-28T07:06:22.353Z,83.69
2023-02-28T07:07:22.509Z,83.09
2023-02-28T07:08:24.212Z,82.14
2023-02-28T07:09:23.749Z,80.73
2023-02-28T07:10:23.054Z,76.51
2023-02-28T07:11:23.278Z,72.96
2023-02-28T07:12:24.212Z,71.12
2023-02-28T07:13:23.605Z,68.74
2023-02-28T07:14:24.709Z,65.53
2023-02-28T07:15:24.259Z,62.95
2023-02-28T07:16:24.210Z,61.26
2023-02-28T07:17:24.385Z,60.04
2023-02-28T07:18:24.558Z,58.07
2023-02-28T07:19:24.755Z,57.19
2023-02-28T07:20:24.915Z,56.96
2023-02-28T07:21:25.122Z,56.10
2023-02-28T07:22:27.209Z,56.31
2023-02-28T07:23:25.459Z,56.73
2023-02-28T07:24:25.603Z,56.65
2023-02-28T07:25:25.775Z,56.88
2023-02-28T07:26:26.730Z,58.15
2023-02-28T07:27:26.118Z,59.25
2023-02-28T07:28:26.281Z,61.18
2023-02-28T07:29:26.433Z,60.83
2023-02-28T07:30:27.215Z,59.95
2023-02-28T07:31:28.262Z,59.04
2023-02-28T07:32:27.778Z,57.60
2023-02-28T07:33:27.711Z,55.59
2023-02-28T07:34:27.232Z,55.07
2023-02-28T07:35:27.412Z,55.30
2023-02-28T07:36:29.214Z,54.83
2023-02-28T07:37:28.720Z,57.12
2023-02-28T07:38:27.830Z,61.04
2023-02-28T07:39:28.751Z,62.95
2023-02-28T07:40:28.254Z,64.32
2023-02-28T07:41:29.626Z,64.92
2023-02-28T07:42:29.219Z,63.59
2023-02-28T07:43:29.214Z,61.32
2023-02-28T07:44:30.578Z,59.94
2023-02-28T07:45:29.766Z,57.58
2023-02-28T07:46:30.747Z,57.14
2023-02-28T07:47:31.227Z,59.04
2023-02-28T07:48:29.486Z,61.07
2023-02-28T07:49:29.657Z,60.89
2023-02-28T07:50:29.844Z,63.13
2023-02-28T07:51:31.045Z,64.89
2023-02-28T07:52:30.205Z,66.98
2023-02-28T07:53:30.381Z,68.37
2023-02-28T07:54:30.563Z,68.89
2023-02-28T07:55:31.277Z,68.82
2023-02-28T07:56:31.258Z,69.65
2023-02-28T07:57:33.670Z,69.34
2023-02-28T07:58:32.265Z,69.89
2023-02-28T07:59:32.408Z,69.68
2023-02-28T08:00:33.313Z,68.77
2023-02-28T08:01:33.846Z,70.24
2023-02-28T08:02:33.228Z,70.13
2023-02-28T08:03:32.149Z,69.61
2023-02-28T08:04:32.407Z,69.92
2023-02-28T08:05:32.560Z,69.82
2023-02-28T08:06:32.765Z,70.17
2023-02-28T08:07:32.946Z,69.74
2023-02-28T08:08:33.738Z,70.27
2023-02-28T08:09:33.300Z,71.28
2023-02-28T08:10:33.474Z,71.11
2023-02-28T08:11:33.664Z,71.52
2023-02-28T08:12:33.864Z,70.06
2023-02-28T08:13:34.117Z,69.95
2023-02-28T08:14:35.233Z,70.27
2023-02-28T08:15:34.517Z,70.17
2023-02-28T08:16:34.742Z,70.37
2023-02-28T08:17:35.769Z,70.03
2023-02-28T08:18:35.093Z,69.92
2023-02-28T08:19:35.275Z,69.43
2023-02-28T08:20:35.468Z,71.49
2023-02-28T08:21:36.240Z,70.17
2023-02-28T08:22:35.781Z,68.55
2023-02-28T08:23:36.000Z,66.45
2023-02-28T08:24:36.733Z,63.81
2023-02-28T08:25:36.421Z,60.74
2023-02-28T08:26:36.604Z,59.11
2023-02-28T08:27:37.731Z,57.14
2023-02-28T08:28:37.004Z,55.28
2023-02-28T08:29:37.193Z,54.84
2023-02-28T08:30:37.379Z,54.40
2023-02-28T08:31:37.564Z,53.44
2023-02-28T08:32:37.853Z,55.64
2023-02-28T08:33:38.772Z,55.79
2023-02-28T08:34:38.083Z,58.28
2023-02-28T08:35:38.375Z,57.84
2023-02-28T08:36:38.531Z,57.58
2023-02-28T08:37:39.595Z,56.13
2023-02-28T08:38:39.926Z,56.54
2023-02-28T08:39:39.915Z,56.91
2023-02-28T08:40:39.127Z,56.34
2023-02-28T08:41:39.737Z,57.81
2023-02-28T08:42:39.402Z,59.14
2023-02-28T08:43:39.578Z,59.98
2023-02-28T08:44:40.282Z,61.76
2023-02-28T08:45:40.024Z,64.49
2023-02-28T08:46:40.147Z,64.67
2023-02-28T08:47:41.237Z,63.49
2023-02-28T08:48:42.237Z,63.88
2023-02-28T08:49:40.751Z,62.50
2023-02-28T08:50:43.905Z,61.35
2023-02-28T08:51:42.106Z,60.67
2023-02-28T08:52:42.238Z,59.25
2023-02-28T08:53:41.388Z,60.21
2023-02-28T08:54:41.591Z,60.24
2023-02-28T08:55:41.775Z,59.38
2023-02-28T08:56:41.998Z,60.75
2023-02-28T08:57:42.236Z,61.51
2023-02-28T08:58:42.438Z,61.62
2023-02-28T08:59:44.234Z,63.10
2023-02-28T09:00:42.780Z,63.27
2023-02-28T09:01:42.987Z,64.23
2023-02-28T09:02:43.177Z,64.65
2023-02-28T09:03:43.349Z,65.41
2023-02-28T09:04:43.585Z,66.35
2023-02-28T09:05:43.777Z,66.69
2023-02-28T09:06:44.777Z,66.91
2023-02-28T09:07:44.070Z,67.11
2023-02-28T09:08:44.225Z,66.38
2023-02-28T09:09:45.410Z,65.52
2023-02-28T09:10:44.573Z,66.38
2023-02-28T09:11:44.742Z,65.75
2023-02-28T09:12:45.775Z,66.28
2023-02-28T09:13:45.735Z,67.74
2023-02-28T09:14:46.732Z,68.05
2023-02-28T09:15:45.512Z,67.98
2023-02-28T09:16:45.713Z,67.56
2023-02-28T09:17:47.200Z,67.46
2023-02-28T09:18:47.732Z,67.77
2023-02-28T09:19:47.231Z,68.08
2023-02-28T09:20:46.398Z,68.08
2023-02-28T09:21:46.812Z,68.26
2023-02-28T09:22:47.735Z,68.57
2023-02-28T09:23:46.888Z,68.44
2023-02-28T09:24:47.101Z,68.57
2023-02-28T09:25:49.252Z,68.29
2023-02-28T09:26:56.784Z,67.77
2023-02-28T09:27:49.673Z,67.77
2023-02-28T09:28:48.737Z,67.63
2023-02-28T09:29:48.343Z,67.74
2023-02-28T09:30:48.209Z,67.46
2023-02-28T09:31:48.859Z,67.98
2023-02-28T09:32:50.403Z,68.08
2023-02-28T09:33:49.716Z,68.40
2023-02-28T09:34:48.856Z,68.60
2023-02-28T09:35:49.048Z,69.23
2023-02-28T09:36:49.612Z,68.60
2023-02-28T09:37:49.369Z,67.14
2023-02-28T09:38:49.804Z,67.14
2023-02-28T09:39:50.728Z,67.53
2023-02-28T09:40:49.844Z,67.08
2023-02-28T09:41:49.994Z,66.46
2023-02-28T09:42:50.792Z,66.46
2023-02-28T09:43:50.310Z,65.28
2023-02-28T09:44:50.800Z,64.97
2023-02-28T09:45:50.713Z,64.34
2023-02-28T09:46:51.751Z,64.21
2023-02-28T09:47:51.131Z,63.27
2023-02-28T09:48:52.751Z,63.40
2023-02-28T09:49:51.413Z,64.69
2023-02-28T09:50:51.601Z,64.58
2023-02-28T09:51:52.744Z,65.41
2023-02-28T09:52:52.786Z,65.62
2023-02-28T09:53:56.685Z,65.52
2023-02-28T09:54:54.219Z,65.00
2023-02-28T09:55:52.335Z,65.03
2023-02-28T09:56:52.567Z,65.75
2023-02-28T09:57:52.764Z,64.50
2023-02-28T09:58:55.753Z,64.50
2023-02-28T09:59:53.106Z,65.03
2023-02-28T10:00:53.308Z,65.52
2023-02-28T10:01:54.861Z,65.44
2023-02-28T10:02:53.674Z,65.34
2023-02-28T10:03:53.849Z,66.28
2023-02-28T10:04:54.796Z,65.41
2023-02-28T10:05:54.215Z,65.34
2023-02-28T10:06:54.803Z,64.92
2023-02-28T10:07:55.295Z,65.20
2023-02-28T10:08:54.791Z,64.69
2023-02-28T10:09:54.965Z,64.89
2023-02-28T10:10:55.788Z,65.00
2023-02-28T10:11:56.987Z,64.79
2023-02-28T10:12:55.531Z,65.31
2023-02-28T10:13:56.247Z,65.94
2023-02-28T10:14:56.797Z,65.28
2023-02-28T10:15:56.156Z,65.52
2023-02-28T10:16:56.242Z,65.25
2023-02-28T10:18:08.423Z,64.83
2023-02-28T10:18:58.529Z,64.34
2023-02-28T10:19:56.754Z,64.73
2023-02-28T10:20:57.753Z,64.21
2023-02-28T10:21:57.141Z,63.20
2023-02-28T10:22:57.311Z,64.11
2023-02-28T10:23:57.537Z,63.55
2023-02-28T10:24:58.296Z,62.85
2023-02-28T10:25:57.856Z,63.17
2023-02-28T10:26:59.646Z,62.75
2023-02-28T10:27:58.324Z,63.58
2023-02-28T10:28:59.253Z,64.21
2023-02-28T10:29:59.297Z,63.37
2023-02-28T10:31:00.279Z,63.45
2023-02-28T10:32:00.268Z,63.08
2023-02-28T10:32:59.184Z,62.14
2023-02-28T10:34:01.293Z,62.93
2023-02-28T10:34:59.560Z,62.64
2023-02-28T10:35:59.772Z,62.96
2023-02-28T10:36:59.990Z,62.62
2023-02-28T10:38:00.143Z,62.82
2023-02-28T10:39:01.257Z,61.44
2023-02-28T10:40:00.885Z,61.13
2023-02-28T10:41:00.669Z,61.13
2023-02-28T10:42:00.838Z,60.50
2023-02-28T10:43:01.058Z,59.05
2023-02-28T10:44:01.237Z,59.46
2023-02-28T10:45:01.457Z,59.36
2023-02-28T10:46:02.147Z,59.41
2023-02-28T10:47:01.826Z,59.30
2023-02-28T10:48:02.011Z,57.92
2023-02-28T10:49:03.271Z,56.81
2023-02-28T10:50:02.423Z,57.20
2023-02-28T10:51:02.632Z,55.43
2023-02-28T10:52:02.851Z,54.88
2023-02-28T10:53:05.090Z,54.83
2023-02-28T10:54:04.300Z,54.08
2023-02-28T10:55:03.444Z,53.85
2023-02-28T10:56:03.664Z,53.92
2023-02-28T10:57:03.846Z,51.93
2023-02-28T10:58:04.048Z,51.39
2023-02-28T10:59:04.767Z,50.46
2023-02-28T11:00:04.433Z,50.92
2023-02-28T11:01:04.677Z,51.21
2023-02-28T11:02:07.418Z,51.73
2023-02-28T11:03:05.810Z,51.70
2023-02-28T11:04:05.320Z,51.37
2023-02-28T11:05:05.352Z,50.54
2023-02-28T11:06:06.324Z,50.02
2023-02-28T11:07:05.640Z,50.54
2023-02-28T11:08:06.815Z,51.50
2023-02-28T11:09:06.039Z,50.56
2023-02-28T11:10:06.262Z,51.00
2023-02-28T11:11:07.300Z,50.79
2023-02-28T11:12:06.826Z,52.01
2023-02-28T11:13:07.314Z,50.67
2023-02-28T11:14:08.761Z,50.48
2023-02-28T11:15:07.808Z,51.31
2023-02-28T11:16:08.798Z,51.86
2023-02-28T11:17:09.757Z,51.48
2023-02-28T11:18:07.901Z,52.36
2023-02-28T11:19:08.099Z,53.92
2023-02-28T11:20:08.294Z,53.01
2023-02-28T11:21:08.360Z,53.74
2023-02-28T11:22:08.564Z,53.64
2023-02-28T11:23:08.715Z,53.61
2023-02-28T11:24:08.854Z,53.41
2023-02-28T11:25:09.766Z,53.38
2023-02-28T11:26:09.152Z,53.56
2023-02-28T11:27:09.347Z,53.12
2023-02-28T11:28:09.526Z,52.00
2023-02-28T11:29:09.682Z,52.19
2023-02-28T11:30:10.764Z,51.98
2023-02-28T11:31:10.064Z,51.78
2023-02-28T11:32:10.446Z,52.19
2023-02-28T11:33:10.492Z,52.29
2023-02-28T11:34:11.261Z,52.06
2023-02-28T11:35:11.625Z,52.27
2023-02-28T11:36:12.817Z,50.30
2023-02-28T11:37:11.220Z,50.90
2023-02-28T11:38:12.430Z,52.33
2023-02-28T11:39:11.584Z,51.29
2023-02-28T11:40:11.749Z,50.61
2023-02-28T11:41:12.828Z,51.34
2023-02-28T11:42:12.800Z,51.96
2023-02-28T11:43:13.628Z,52.06
2023-02-28T11:44:12.419Z,52.17
2023-02-28T11:45:12.576Z,51.75
2023-02-28T11:46:12.781Z,51.44
2023-02-28T11:47:12.939Z,51.86
2023-02-28T11:48:14.762Z,52.79
2023-02-28T11:49:14.264Z,53.20
2023-02-28T11:50:13.406Z,51.83
2023-02-28T11:51:13.587Z,51.83
2023-02-28T11:52:13.728Z,51.57
2023-02-28T11:53:14.803Z,53.02
2023-02-28T11:54:14.323Z,53.02
2023-02-28T11:55:14.221Z,52.81
2023-02-28T11:56:14.409Z,52.27
2023-02-28T11:57:15.339Z,52.37
2023-02-28T11:58:14.723Z,54.21
2023-02-28T11:59:16.273Z,52.04
2023-02-28T12:00:15.048Z,51.73
2023-02-28T12:01:15.831Z,51.96
2023-02-28T12:02:16.165Z,51.93
2023-02-28T12:03:15.512Z,51.62
2023-02-28T12:04:15.683Z,51.39
2023-02-28T12:05:15.854Z,51.08
2023-02-28T12:06:16.334Z,51.29
2023-02-28T12:07:18.274Z,51.81
2023-02-28T12:08:17.282Z,51.13
2023-02-28T12:09:17.784Z,51.78
2023-02-28T12:10:17.278Z,52.48
2023-02-28T12:11:16.831Z,51.57
2023-02-28T12:12:16.984Z,51.86
2023-02-28T12:13:17.819Z,52.79
2023-02-28T12:14:17.347Z,52.06
2023-02-28T12:15:17.547Z,52.37
2023-02-28T12:16:17.773Z,52.09
2023-02-28T12:17:18.836Z,52.50
2023-02-28T12:18:18.133Z,53.72
2023-02-28T12:19:20.282Z,52.37
2023-02-28T12:20:18.543Z,52.06
2023-02-28T12:21:18.718Z,52.04
2023-02-28T12:22:20.777Z,52.04
2023-02-28T12:23:19.785Z,52.04
2023-02-28T12:24:19.214Z,52.20
2023-02-28T12:25:19.382Z,52.20
2023-02-28T12:26:20.281Z,51.99
2023-02-28T12:27:19.704Z,49.91
2023-02-28T12:28:19.863Z,51.26
2023-02-28T12:29:20.067Z,50.23
2023-02-28T12:30:20.233Z,50.51
2023-02-28T12:31:21.292Z,50.90
2023-02-28T12:32:20.981Z,51.91
2023-02-28T12:33:22.148Z,52.25
2023-02-28T12:34:21.827Z,52.45
2023-02-28T12:35:21.079Z,52.14
2023-02-28T12:36:21.265Z,52.04
2023-02-28T12:37:22.281Z,52.97
2023-02-28T12:38:21.700Z,52.69
2023-02-28T12:39:23.972Z,52.17
2023-02-28T12:40:23.073Z,53.75
2023-02-28T12:41:22.212Z,53.41
2023-02-28T12:42:22.840Z,54.55
2023-02-28T12:43:22.615Z,55.17
2023-02-28T12:44:22.790Z,54.52
2023-02-28T12:45:23.081Z,53.46
2023-02-28T12:46:23.324Z,53.69
2023-02-28T12:47:24.289Z,53.67
2023-02-28T12:48:23.455Z,53.67
2023-02-28T12:49:24.285Z,53.46
2023-02-28T12:50:23.844Z,52.30
2023-02-28T12:51:24.354Z,52.07
2023-02-28T12:52:25.788Z,52.17
2023-02-28T12:53:24.428Z,52.28
2023-02-28T12:54:24.622Z,50.85